Time;durP1;ratioP1;P1;durP2;ratioP2;P2;SDS_P1;SDS_P2;PMS_P1;PMS_P2;Temp;Humidity;BMP_temperature;BMP_pressure;BME280_temperature;BME280_humidity;BME280_pressure;Samples;Min_cycle;Max_cycle;Signal;HPM_P1;HPM_P2
2021/04/06 00:02:25;;;;;;;;;;;;;;;29.85;20.09;100246.19;5096871;28;1001;-38
2021/04/06 00:04:51;;;;;;;;;;;;;;;29.90;20.11;100246.38;5085133;28;760;-36
2021/04/06 00:07:17;;;;;;;;;;;;;;;29.71;20.31;100235.41;5102898;28;804;-35
2021/04/06 00:09:42;;;;;;;;;;;;;;;28.59;21.55;100232.28;5084483;28;863;-32
2021/04/06 00:12:08;;;;;;;;;;;;;;;28.39;21.68;100226.84;5090297;28;1163;-38
2021/04/06 00:14:33;;;;;;;;;;;;;;;29.18;20.91;100229.00;5105023;28;1898;-36
2021/04/06 00:17:02;;;;;;;;;;;;;;;29.55;20.37;100228.53;5118304;28;962;-33
2021/04/06 00:19:28;;;;;;;;;;;;;;;29.79;20.33;100218.91;5103032;28;767;-37
2021/04/06 00:21:55;;;;;;;;;;;;;;;29.85;19.95;100205.50;5102516;28;853;-38
2021/04/06 00:24:23;;;;;;;;;;;;;;;30.02;19.76;100203.16;5102275;28;863;-37
2021/04/06 00:26:51;;;;;;;;;;;;;;;30.04;19.92;100201.06;5102476;28;855;-38
2021/04/06 00:29:17;;;;;;;;;;;;;;;29.70;19.93;100199.31;5084981;28;1448;-37
2021/04/06 00:31:43;;;;;;;;;;;;;;;28.67;21.39;100190.66;5086551;28;1026;-33
2021/04/06 00:34:08;;;;;;;;;;;;;;;28.65;21.37;100193.56;5104460;28;1962;-34
2021/04/06 00:36:34;;;;;;;;;;;;;;;29.32;20.66;100183.78;5123349;28;739;-38
2021/04/06 00:38:59;;;;;;;;;;;;;;;29.66;20.30;100175.56;5123365;28;764;-33
2021/04/06 00:41:24;;;;;;;;;;;;;;;29.80;20.27;100169.03;5104660;28;608;-38
2021/04/06 00:43:50;;;;;;;;;;;;;;;29.94;20.02;100167.13;5104594;28;843;-32
2021/04/06 00:46:21;;;;;;;;;;;;;;;29.94;20.06;100158.97;5122812;28;1124;-38
2021/04/06 00:48:48;;;;;;;;;;;;;;;30.00;19.81;100156.41;5102610;28;962;-38
2021/04/06 00:51:14;;;;;;;;;;;;;;;29.64;19.89;100151.41;5102995;28;737;-38
2021/04/06 00:53:57;;;;;;;;;;;;;;;28.86;21.04;100143.00;5102144;28;1913;-32
2021/04/06 00:56:24;;;;;;;;;;;;;;;28.87;21.00;100138.41;5102554;28;772;-35
2021/04/06 00:58:49;;;;;;;;;;;;;;;29.37;20.59;100139.78;5102972;28;832;-36
2021/04/06 01:01:15;;;;;;;;;;;;;;;29.55;20.51;100122.81;5102262;28;776;-38
2021/04/06 01:03:40;;;;;;;;;;;;;;;29.67;20.16;100112.19;5103092;28;1140;-34
2021/04/06 01:06:05;;;;;;;;;;;;;;;29.85;20.12;100110.63;5104746;28;776;-38
2021/04/06 01:08:31;;;;;;;;;;;;;;;29.93;20.05;100099.50;5121745;28;854;-38
2021/04/06 01:10:57;;;;;;;;;;;;;;;30.02;19.76;100098.22;5118820;28;831;-35
2021/04/06 01:13:22;;;;;;;;;;;;;;;29.86;19.99;100091.44;5104119;28;1952;-36
2021/04/06 01:15:48;;;;;;;;;;;;;;;30.03;19.99;100093.63;5098755;28;870;-37
2021/04/06 01:18:13;;;;;;;;;;;;;;;30.04;19.76;100081.72;5114122;28;1018;-36
2021/04/06 01:20:38;;;;;;;;;;;;;;;30.01;19.90;100076.75;5101185;28;823;-38
2021/04/06 01:23:10;;;;;;;;;;;;;;;29.26;20.51;100084.41;5118790;28;859;-38
2021/04/06 01:25:36;;;;;;;;;;;;;;;28.76;21.24;100074.91;5119857;28;836;-39
2021/04/06 01:28:08;;;;;;;;;;;;;;;29.14;21.08;100067.97;5119393;28;814;-34
2021/04/06 01:30:45;;;;;;;;;;;;;;;29.55;20.25;100064.06;5118589;28;842;-37
2021/04/06 01:33:14;;;;;;;;;;;;;;;29.78;20.05;100056.47;5103847;28;1958;-34
2021/04/06 01:35:46;;;;;;;;;;;;;;;29.89;20.04;100065.75;5098868;28;806;-32
2021/04/06 01:38:12;;;;;;;;;;;;;;;29.97;19.68;100062.78;5098720;28;708;-38
2021/04/06 01:40:37;;;;;;;;;;;;;;;29.94;19.96;100068.66;5080640;28;899;-39
2021/04/06 01:43:03;;;;;;;;;;;;;;;30.04;19.81;100065.47;5080421;28;945;-34
2021/04/06 01:45:29;;;;;;;;;;;;;;;30.05;19.86;100064.41;5080328;28;953;-34
2021/04/06 01:47:54;;;;;;;;;;;;;;;30.17;19.59;100081.63;5093278;28;1045;-38
2021/04/06 01:50:20;;;;;;;;;;;;;;;30.08;19.71;100074.81;5100178;28;771;-38
2021/04/06 01:52:46;;;;;;;;;;;;;;;30.10;19.92;100080.84;5099212;28;2001;-38
2021/04/06 01:55:17;;;;;;;;;;;;;;;29.05;20.65;100089.03;5118542;28;844;-33
2021/04/06 01:57:46;;;;;;;;;;;;;;;28.57;21.33;100078.28;5119028;28;759;-34
2021/04/06 02:00:44;;;;;;;;;;;;;;;29.34;20.64;100082.25;5100709;28;776;-38
2021/04/06 02:02:58;;;;;;;;;;;;;;;29.69;20.21;100070.28;5104996;28;1420;-39
2021/04/06 02:05:24;;;;;;;;;;;;;;;29.82;19.94;100076.66;5098283;28;822;-33
2021/04/06 02:07:50;;;;;;;;;;;;;;;29.92;19.91;100076.16;5097988;28;799;-35
2021/04/06 02:10:15;;;;;;;;;;;;;;;29.90;20.07;100067.41;5080373;28;825;-38
2021/04/06 02:12:49;;;;;;;;;;;;;;;29.98;20.08;100060.91;5089027;28;1971;-39
2021/04/06 02:15:15;;;;;;;;;;;;;;;29.76;20.15;100058.56;5118514;28;829;-37
2021/04/06 02:17:50;;;;;;;;;;;;;;;28.68;21.18;100059.72;5089480;28;1506;-32
2021/04/06 02:20:19;;;;;;;;;;;;;;;28.66;21.46;100054.50;5097984;28;870;-34
2021/04/06 02:22:53;;;;;;;;;;;;;;;29.92;20.25;100052.59;5097494;28;1317;-39
2021/04/06 02:25:18;;;;;;;;;;;;;;;30.55;19.48;100047.31;5097552;28;796;-38
2021/04/06 02:27:43;;;;;;;;;;;;;;;30.43;19.35;100036.38;5098251;28;811;-35
2021/04/06 02:30:09;;;;;;;;;;;;;;;30.90;19.12;100043.22;5079122;28;812;-38
2021/04/06 02:32:34;;;;;;;;;;;;;;;31.35;18.54;100038.50;5107189;28;1949;-35
2021/04/06 02:35:00;;;;;;;;;;;;;;;31.55;18.37;100028.47;5118120;28;791;-35
2021/04/06 02:37:26;;;;;;;;;;;;;;;31.77;18.15;100024.16;5117627;28;811;-35
2021/04/06 02:39:53;;;;;;;;;;;;;;;31.99;17.94;100015.47;5118124;28;799;-39
2021/04/06 02:42:18;;;;;;;;;;;;;;;32.15;17.82;100017.75;5117762;28;827;-29
2021/04/06 02:44:43;;;;;;;;;;;;;;;32.20;17.79;100013.22;5116895;28;816;-37
2021/04/06 02:47:08;;;;;;;;;;;;;;;32.36;17.67;100003.56;5093445;28;1083;-39
2021/04/06 02:49:34;;;;;;;;;;;;;;;32.38;17.78;100006.03;5097695;28;822;-38
2021/04/06 02:51:59;;;;;;;;;;;;;;;32.42;17.95;99996.31;5078144;28;1167;-37
2021/04/06 02:54:24;;;;;;;;;;;;;;;32.44;17.80;100001.53;5097143;28;1941;-38
2021/04/06 02:56:49;;;;;;;;;;;;;;;32.61;17.76;99999.78;5097166;28;819;-35
2021/04/06 02:59:16;;;;;;;;;;;;;;;32.59;17.85;100009.22;5096976;28;996;-37
2021/04/06 03:01:41;;;;;;;;;;;;;;;32.60;17.68;100011.72;5098910;28;867;-37
2021/04/06 03:04:22;;;;;;;;;;;;;;;32.66;17.66;99999.06;5116959;28;837;-39
2021/04/06 03:06:51;;;;;;;;;;;;;;;32.70;17.60;100000.22;5117035;28;1407;-38
2021/04/06 03:09:20;;;;;;;;;;;;;;;32.66;17.36;100003.66;5117291;28;751;-38
2021/04/06 03:11:46;;;;;;;;;;;;;;;32.69;17.27;100008.63;5115029;28;1177;-35
2021/04/06 03:14:12;;;;;;;;;;;;;;;32.72;17.46;100005.41;5096536;28;1909;-39
2021/04/06 03:16:37;;;;;;;;;;;;;;;32.73;17.58;100005.19;5098121;28;1030;-35
2021/04/06 03:19:03;;;;;;;;;;;;;;;32.77;17.27;100005.53;5117507;28;819;-35
2021/04/06 03:21:28;;;;;;;;;;;;;;;32.90;17.54;99998.97;5117276;28;794;-39
2021/04/06 03:23:54;;;;;;;;;;;;;;;32.80;17.63;100004.25;5117139;28;828;-37
2021/04/06 03:26:21;;;;;;;;;;;;;;;32.68;17.63;100013.22;5098286;28;824;-37
2021/04/06 03:28:46;;;;;;;;;;;;;;;32.47;17.53;100010.03;5098570;28;855;-41
2021/04/06 03:31:12;;;;;;;;;;;;;;;32.50;17.52;100023.19;5098880;28;1236;-34
2021/04/06 03:34:01;;;;;;;;;;;;;;;32.46;17.59;100023.91;5097487;28;1905;-34
2021/04/06 03:36:26;;;;;;;;;;;;;;;32.54;17.60;100023.56;5114465;28;822;-40
2021/04/06 03:38:58;;;;;;;;;;;;;;;32.50;17.61;100017.72;5117027;28;758;-41
2021/04/06 03:41:24;;;;;;;;;;;;;;;32.49;17.51;100018.81;5117052;28;755;-36
2021/04/06 03:43:49;;;;;;;;;;;;;;;32.47;17.46;100010.03;5116637;28;816;-37
2021/04/06 03:46:20;;;;;;;;;;;;;;;32.35;17.71;100001.88;5117164;28;1288;-33
2021/04/06 03:48:46;;;;;;;;;;;;;;;32.36;17.55;100000.84;5078960;28;961;-36
2021/04/06 03:51:27;;;;;;;;;;;;;;;28.46;16.08;99993.16;5078657;28;857;-31
2021/04/06 03:53:53;;;;;;;;;;;;;;;25.46;18.98;99988.31;5095938;28;1977;-33
2021/04/06 03:56:18;;;;;;;;;;;;;;;25.50;20.79;99986.91;5096585;28;751;-43
2021/04/06 03:58:54;;;;;;;;;;;;;;;25.38;20.81;99989.25;5096449;28;847;-38
2021/04/06 04:01:19;;;;;;;;;;;;;;;24.87;22.23;99998.13;5096189;28;825;-41
2021/04/06 04:03:44;;;;;;;;;;;;;;;24.20;22.76;99994.28;5115304;28;1013;-39
2021/04/06 04:06:10;;;;;;;;;;;;;;;23.97;22.68;99997.75;5116748;28;775;-31
2021/04/06 04:08:35;;;;;;;;;;;;;;;23.89;22.75;99995.13;5116748;28;771;-35
2021/04/06 04:11:00;;;;;;;;;;;;;;;24.42;21.40;100001.63;5116452;28;807;-37
2021/04/06 04:13:26;;;;;;;;;;;;;;;23.14;22.40;99992.88;5100237;28;1959;-34
2021/04/06 04:15:51;;;;;;;;;;;;;;;22.58;23.33;99989.19;5096270;28;779;-39
2021/04/06 04:18:16;;;;;;;;;;;;;;;22.63;24.22;99989.53;5097449;28;947;-36
2021/04/06 04:20:42;;;;;;;;;;;;;;;25.10;21.57;99973.81;5096035;28;779;-33
2021/04/06 04:23:07;;;;;;;;;;;;;;;26.28;20.40;99981.81;5096127;28;790;-41
2021/04/06 04:25:33;;;;;;;;;;;;;;;26.98;19.94;99972.06;5096275;28;728;-40
2021/04/06 04:27:58;;;;;;;;;;;;;;;27.26;19.93;99972.00;5095809;28;859;-33
2021/04/06 04:33:21;;;;;;;;;;;;;;;27.58;20.06;99978.72;5066939;28;1894;-31
2021/04/06 04:35:46;;;;;;;;;;;;;;;27.39;20.07;99979.31;5095456;28;799;-43
2021/04/06 04:38:12;;;;;;;;;;;;;;;27.53;19.44;99989.34;5096211;28;844;-30
2021/04/06 04:40:41;;;;;;;;;;;;;;;25.66;20.53;99985.84;5096041;28;759;-36
2021/04/06 04:43:06;;;;;;;;;;;;;;;24.86;21.91;99985.72;5096220;28;717;-43
2021/04/06 04:45:32;;;;;;;;;;;;;;;26.27;20.86;99989.09;5098423;28;1023;-43
2021/04/06 04:47:57;;;;;;;;;;;;;;;24.86;21.96;99993.78;5112615;28;1018;-29
2021/04/06 04:50:22;;;;;;;;;;;;;;;24.24;22.60;99993.91;5119779;28;823;-34
2021/04/06 04:52:48;;;;;;;;;;;;;;;23.99;22.95;99983.34;5119713;28;1909;-43
2021/04/06 04:55:14;;;;;;;;;;;;;;;23.82;23.48;99986.97;5120180;28;752;-43
2021/04/06 04:57:39;;;;;;;;;;;;;;;23.68;23.82;99983.22;5119973;28;855;-31
2021/04/06 05:00:05;;;;;;;;;;;;;;;23.47;24.23;99979.31;5120144;28;724;-43
2021/04/06 05:02:31;;;;;;;;;;;;;;;23.55;24.49;99973.06;5091801;28;1017;-29
2021/04/06 05:04:56;;;;;;;;;;;;;;;23.52;24.59;99956.47;5099098;28;804;-42
2021/04/06 05:07:22;;;;;;;;;;;;;;;23.49;24.67;99952.28;5099592;28;895;-26
2021/04/06 05:09:47;;;;;;;;;;;;;;;23.45;24.96;99956.34;5099492;28;747;-42
2021/04/06 05:12:12;;;;;;;;;;;;;;;23.24;25.08;99960.47;5104724;28;1119;-29
2021/04/06 05:14:37;;;;;;;;;;;;;;;23.17;25.38;99967.56;5119628;28;1965;-42
2021/04/06 05:17:03;;;;;;;;;;;;;;;24.28;24.35;99965.63;5114143;28;1011;-33
2021/04/06 05:19:28;;;;;;;;;;;;;;;24.15;23.58;99961.69;5099358;28;819;-31
2021/04/06 05:21:53;;;;;;;;;;;;;;;23.47;24.65;99954.34;5098749;28;819;-34
2021/04/06 05:24:18;;;;;;;;;;;;;;;23.36;25.13;99964.44;5099278;28;739;-26
2021/04/06 05:26:44;;;;;;;;;;;;;;;23.20;24.85;99961.84;5099236;28;835;-43
2021/04/06 05:29:09;;;;;;;;;;;;;;;23.24;25.12;99961.31;5098736;28;775;-41
2021/04/06 05:31:34;;;;;;;;;;;;;;;22.84;25.58;99965.84;5099993;28;907;-43
2021/04/06 05:34:00;;;;;;;;;;;;;;;22.65;25.55;99961.72;5119267;28;1909;-30
2021/04/06 05:36:25;;;;;;;;;;;;;;;22.68;25.77;99966.72;5118964;28;815;-42
2021/04/06 05:38:50;;;;;;;;;;;;;;;22.84;25.67;99965.84;5119290;28;747;-42
2021/04/06 05:41:16;;;;;;;;;;;;;;;22.95;25.53;99961.94;5119342;28;827;-28
2021/04/06 05:43:41;;;;;;;;;;;;;;;22.76;25.64;99955.97;5118738;28;748;-27
2021/04/06 05:46:06;;;;;;;;;;;;;;;22.45;25.68;99964.75;5100614;28;1232;-43
2021/04/06 05:48:32;;;;;;;;;;;;;;;22.37;25.72;99961.06;5082876;28;958;-26
2021/04/06 05:50:58;;;;;;;;;;;;;;;22.21;25.69;99953.06;5098496;28;1058;-43
2021/04/06 05:53:23;;;;;;;;;;;;;;;22.16;25.81;99950.88;5098708;28;1906;-41
2021/04/06 05:55:49;;;;;;;;;;;;;;;22.29;26.00;99938.84;5079997;28;1128;-41
2021/04/06 05:58:14;;;;;;;;;;;;;;;22.37;25.64;99931.59;5098680;28;804;-43
2021/04/06 06:00:39;;;;;;;;;;;;;;;22.22;25.47;99926.09;5098702;28;808;-24
2021/04/06 06:03:06;;;;;;;;;;;;;;;22.39;25.74;99929.59;5112296;28;1050;-43
2021/04/06 06:05:31;;;;;;;;;;;;;;;22.43;25.92;99919.38;5118625;28;770;-25
2021/04/06 06:07:56;;;;;;;;;;;;;;;22.55;25.93;99925.19;5100832;28;1636;-43
2021/04/06 06:10:25;;;;;;;;;;;;;;;22.21;26.16;99927.13;5118941;28;739;-39
2021/04/06 06:12:51;;;;;;;;;;;;;;;21.93;26.65;99921.28;5106934;28;1985;-27
2021/04/06 06:15:17;;;;;;;;;;;;;;;21.85;27.16;99924.81;5098585;28;795;-43
2021/04/06 06:17:52;;;;;;;;;;;;;;;21.87;27.18;99910.22;5109163;28;959;-43
2021/04/06 06:20:17;;;;;;;;;;;;;;;21.80;27.57;99905.72;5100208;28;1828;-43
2021/04/06 06:22:43;;;;;;;;;;;;;;;23.25;25.49;99903.13;5118724;28;756;-42
2021/04/06 06:25:09;;;;;;;;;;;;;;;22.83;25.39;99899.81;5099617;28;980;-43
2021/04/06 06:27:43;;;;;;;;;;;;;;;21.98;26.45;99906.41;5118070;28;819;-42
2021/04/06 06:30:17;;;;;;;;;;;;;;;21.58;27.44;99902.69;5118336;28;843;-42
2021/04/06 06:32:43;;;;;;;;;;;;;;;23.90;23.97;99910.88;5107168;28;1909;-38
2021/04/06 06:35:08;;;;;;;;;;;;;;;22.24;25.57;99904.50;5097643;28;716;-26
2021/04/06 06:37:33;;;;;;;;;;;;;;;21.96;26.08;99894.16;5098371;28;756;-42
2021/04/06 06:40:00;;;;;;;;;;;;;;;21.94;26.50;99893.53;5079605;28;504;-43
2021/04/06 06:42:30;;;;;;;;;;;;;;;22.06;26.28;99894.81;5078812;28;1186;-31
2021/04/06 06:44:55;;;;;;;;;;;;;;;21.06;27.01;99893.88;5098124;28;802;-26
2021/04/06 06:47:21;;;;;;;;;;;;;;;21.94;26.74;99888.16;5104827;28;1133;-41
2021/04/06 06:49:46;;;;;;;;;;;;;;;21.90;26.50;99882.31;5117627;28;1556;-43
2021/04/06 06:52:24;;;;;;;;;;;;;;;21.15;27.56;99885.72;5118210;28;756;-41
2021/04/06 06:54:56;;;;;;;;;;;;;;;21.29;27.18;99883.41;5117981;28;1909;-31
2021/04/06 06:57:33;;;;;;;;;;;;;;;22.41;26.74;99886.53;5117850;28;859;-35
2021/04/06 07:00:06;;;;;;;;;;;;;;;23.29;25.72;99891.00;5117689;28;844;-40
2021/04/06 07:02:31;;;;;;;;;;;;;;;23.66;25.49;99879.69;5108220;28;947;-28
2021/04/06 07:05:25;;;;;;;;;;;;;;;23.66;25.83;99879.69;5097177;28;798;-40
2021/04/06 07:07:57;;;;;;;;;;;;;;;23.66;25.95;99880.53;5087148;28;1532;-30
2021/04/06 07:10:26;;;;;;;;;;;;;;;23.78;26.00;99878.25;5097059;28;817;-29
2021/04/06 07:12:52;;;;;;;;;;;;;;;23.82;26.07;99889.47;5108085;28;1905;-30
2021/04/06 07:15:18;;;;;;;;;;;;;;;23.89;25.96;99892.25;5117660;28;795;-31
2021/04/06 07:17:44;;;;;;;;;;;;;;;23.89;26.02;99887.69;5088904;28;1010;-41
2021/04/06 07:20:11;;;;;;;;;;;;;;;23.88;26.13;99880.66;5096852;28;745;-29
2021/04/06 07:22:36;;;;;;;;;;;;;;;24.13;25.74;99883.13;5097017;28;776;-39
2021/04/06 07:25:01;;;;;;;;;;;;;;;24.19;25.85;99866.28;5097262;28;759;-29
2021/04/06 07:27:27;;;;;;;;;;;;;;;24.07;26.06;99867.75;5078316;28;875;-25
2021/04/06 07:29:52;;;;;;;;;;;;;;;24.23;25.90;99869.44;5078892;28;804;-40
2021/04/06 07:32:17;;;;;;;;;;;;;;;24.43;25.64;99858.13;5104116;28;955;-41
2021/04/06 07:34:43;;;;;;;;;;;;;;;24.68;25.44;99857.81;5116787;28;1968;-36
2021/04/06 07:37:08;;;;;;;;;;;;;;;24.66;25.40;99865.22;5117427;28;775;-32
2021/04/06 07:39:33;;;;;;;;;;;;;;;24.86;25.11;99862.78;5117390;28;759;-40
2021/04/06 07:41:59;;;;;;;;;;;;;;;25.18;24.83;99865.22;5116874;28;738;-31
2021/04/06 07:44:25;;;;;;;;;;;;;;;24.98;25.35;99857.78;5099409;28;717;-39
2021/04/06 07:46:50;;;;;;;;;;;;;;;24.93;25.21;99857.50;5113424;28;1077;-28
2021/04/06 07:49:21;;;;;;;;;;;;;;;25.11;25.03;99859.78;5096491;28;823;-38
2021/04/06 07:51:50;;;;;;;;;;;;;;;25.03;25.23;99852.66;5096945;28;739;-31
2021/04/06 07:54:16;;;;;;;;;;;;;;;25.02;25.36;99855.53;5096798;28;1988;-39
2021/04/06 07:56:45;;;;;;;;;;;;;;;24.99;25.54;99853.25;5096388;28;783;-35
2021/04/06 07:59:19;;;;;;;;;;;;;;;25.64;24.52;99847.84;5096544;28;1132;-30
2021/04/06 08:01:45;;;;;;;;;;;;;;;25.69;24.37;99852.69;5099156;28;950;-36
2021/04/06 08:04:10;;;;;;;;;;;;;;;25.59;24.66;99857.53;5117028;28;736;-30
2021/04/06 08:06:40;;;;;;;;;;;;;;;25.48;24.85;99861.56;5117152;28;862;-31
2021/04/06 08:09:24;;;;;;;;;;;;;;;25.51;24.85;99858.47;5097919;28;816;-41
2021/04/06 08:12:08;;;;;;;;;;;;;;;25.01;25.55;99841.25;5114566;28;1169;-27
2021/04/06 08:14:56;;;;;;;;;;;;;;;25.00;25.66;99846.81;5096209;28;1914;-38
2021/04/06 08:17:28;;;;;;;;;;;;;;;25.29;25.33;99847.75;5092051;28;1199;-37
2021/04/06 08:20:07;;;;;;;;;;;;;;;25.43;25.24;99846.84;5120073;28;791;-40
2021/04/06 08:22:33;;;;;;;;;;;;;;;25.12;25.55;99833.69;5120809;28;779;-32
2021/04/06 08:25:17;;;;;;;;;;;;;;;25.12;25.76;99844.47;5101676;28;1443;-33
2021/04/06 08:27:42;;;;;;;;;;;;;;;25.40;25.32;99833.75;5121057;28;903;-29
2021/04/06 08:30:26;;;;;;;;;;;;;;;25.33;25.43;99822.09;5120905;28;780;-37
2021/04/06 08:32:57;;;;;;;;;;;;;;;25.31;25.52;99821.44;5101835;28;1901;-36
2021/04/06 08:35:41;;;;;;;;;;;;;;;25.23;25.71;99808.97;5120790;28;794;-35
2021/04/06 08:38:26;;;;;;;;;;;;;;;25.27;25.63;99799.50;5120664;28;839;-40
2021/04/06 08:40:52;;;;;;;;;;;;;;;25.58;25.33;99802.81;5107373;28;887;-42
2021/04/06 08:43:18;;;;;;;;;;;;;;;25.90;24.73;99807.84;5100288;28;779;-32
2021/04/06 08:45:53;;;;;;;;;;;;;;;25.71;25.29;99795.91;5081751;28;1222;-40
2021/04/06 08:48:37;;;;;;;;;;;;;;;26.63;23.92;99789.53;5114344;28;863;-38
2021/04/06 08:51:15;;;;;;;;;;;;;;;27.16;23.07;99784.47;5120437;28;886;-35
2021/04/06 08:53:40;;;;;;;;;;;;;;;27.61;22.75;99778.44;5101273;28;1909;-39
2021/04/06 08:56:13;;;;;;;;;;;;;;;27.17;22.88;99775.31;5120156;28;940;-33
2021/04/06 08:58:38;;;;;;;;;;;;;;;26.45;24.05;99776.59;5120006;28;867;-36
2021/04/06 09:01:04;;;;;;;;;;;;;;;27.16;23.25;99776.38;5119793;28;864;-37
2021/04/06 09:03:29;;;;;;;;;;;;;;;27.84;22.26;99763.66;5102179;28;804;-35
2021/04/06 09:06:04;;;;;;;;;;;;;;;28.10;22.14;99764.59;5099813;28;839;-40
2021/04/06 09:08:29;;;;;;;;;;;;;;;28.33;21.80;99774.94;5099327;28;816;-39
2021/04/06 09:11:03;;;;;;;;;;;;;;;28.51;21.71;99767.16;5099861;28;791;-32
2021/04/06 09:13:29;;;;;;;;;;;;;;;27.78;22.23;99769.91;5115298;28;1901;-34
2021/04/06 09:15:54;;;;;;;;;;;;;;;26.97;23.42;99758.06;5120223;28;807;-40
2021/04/06 09:18:19;;;;;;;;;;;;;;;26.64;23.91;99742.66;5084887;28;839;-39
2021/04/06 09:20:45;;;;;;;;;;;;;;;26.46;24.46;99729.75;5099410;28;763;-33
2021/04/06 09:23:10;;;;;;;;;;;;;;;26.33;24.40;99744.00;5099494;28;811;-39
2021/04/06 09:25:35;;;;;;;;;;;;;;;26.25;24.60;99728.81;5099403;28;827;-31
2021/04/06 09:28:01;;;;;;;;;;;;;;;26.63;24.13;99725.63;5099227;28;739;-35
2021/04/06 09:30:32;;;;;;;;;;;;;;;26.37;24.55;99718.31;5098675;28;762;-39
2021/04/06 09:33:05;;;;;;;;;;;;;;;26.27;24.55;99726.75;5111567;28;2220;-32
2021/04/06 09:35:30;;;;;;;;;;;;;;;26.22;24.62;99716.56;5119793;28;780;-32
2021/04/06 09:37:57;;;;;;;;;;;;;;;26.12;25.08;99711.56;5119605;28;799;-38
2021/04/06 09:40:32;;;;;;;;;;;;;;;26.08;25.01;99701.38;5100855;28;1294;-30
2021/04/06 09:42:58;;;;;;;;;;;;;;;26.37;24.54;99702.97;5119701;28;833;-31
2021/04/06 09:45:24;;;;;;;;;;;;;;;26.07;25.19;99697.03;5100978;28;1506;-39
2021/04/06 09:47:49;;;;;;;;;;;;;;;25.91;25.27;99693.63;5107041;28;1009;-40
2021/04/06 09:50:15;;;;;;;;;;;;;;;26.31;24.71;99690.25;5098997;28;890;-31
2021/04/06 09:52:41;;;;;;;;;;;;;;;26.23;24.91;99682.34;5098970;28;807;-33
2021/04/06 09:55:10;;;;;;;;;;;;;;;26.28;24.81;99674.47;5080630;28;1910;-30
2021/04/06 09:57:39;;;;;;;;;;;;;;;26.35;24.70;99661.88;5099138;28;726;-29
2021/04/06 10:00:06;;;;;;;;;;;;;;;26.33;24.73;99636.16;5080470;28;863;-27
2021/04/06 10:02:31;;;;;;;;;;;;;;;26.32;25.06;99651.50;5107433;28;998;-27
2021/04/06 10:04:56;;;;;;;;;;;;;;;26.30;25.12;99637.38;5119290;28;858;-28
2021/04/06 10:07:25;;;;;;;;;;;;;;;26.35;24.93;99645.72;5119490;28;732;-27
2021/04/06 10:09:56;;;;;;;;;;;;;;;26.16;25.28;99640.03;5118894;28;824;-30
2021/04/06 10:12:22;;;;;;;;;;;;;;;26.04;25.62;99653.25;5111955;28;1182;-27
2021/04/06 10:14:48;;;;;;;;;;;;;;;26.26;25.34;99639.63;5098574;28;1969;-34
2021/04/06 10:17:15;;;;;;;;;;;;;;;26.17;25.26;99638.19;5104533;28;951;-32
2021/04/06 10:19:41;;;;;;;;;;;;;;;26.17;25.39;99648.97;5119101;28;746;-27
2021/04/06 10:22:13;;;;;;;;;;;;;;;26.41;25.18;99644.88;5118454;28;827;-29
2021/04/06 10:24:40;;;;;;;;;;;;;;;26.16;25.50;99647.28;5118334;28;757;-26
2021/04/06 10:27:08;;;;;;;;;;;;;;;26.08;25.57;99644.78;5118777;28;802;-26
2021/04/06 10:29:33;;;;;;;;;;;;;;;26.25;25.37;99634.44;5118614;28;772;-36
2021/04/06 10:32:00;;;;;;;;;;;;;;;26.11;25.51;99633.63;5113055;28;965;-27
2021/04/06 10:34:26;;;;;;;;;;;;;;;26.02;25.83;99616.78;5079813;28;1898;-28
2021/04/06 10:37:02;;;;;;;;;;;;;;;26.22;25.35;99624.94;5098220;28;769;-27
2021/04/06 10:39:38;;;;;;;;;;;;;;;26.09;25.72;99622.19;5097868;28;822;-27
2021/04/06 10:42:04;;;;;;;;;;;;;;;26.11;25.45;99631.72;5097635;28;1419;-37
2021/04/06 10:44:29;;;;;;;;;;;;;;;26.31;25.39;99620.16;5097977;28;806;-30
2021/04/06 10:46:54;;;;;;;;;;;;;;;26.34;25.38;99618.97;5101381;28;1123;-30
2021/04/06 10:49:20;;;;;;;;;;;;;;;26.10;25.69;99626.53;5118122;28;759;-28
2021/04/06 10:51:55;;;;;;;;;;;;;;;26.09;25.65;99624.88;5100239;28;821;-26
2021/04/06 10:54:21;;;;;;;;;;;;;;;26.26;25.40;99612.69;5118043;28;1914;-27
2021/04/06 10:56:46;;;;;;;;;;;;;;;26.14;25.76;99596.28;5117758;28;834;-37
2021/04/06 10:59:12;;;;;;;;;;;;;;;26.10;25.76;99604.97;5118050;28;929;-37
2021/04/06 11:01:41;;;;;;;;;;;;;;;26.43;25.21;99606.09;5115952;28;847;-35
2021/04/06 11:04:10;;;;;;;;;;;;;;;26.31;25.49;99608.56;5097450;28;838;-28
2021/04/06 11:06:36;;;;;;;;;;;;;;;26.13;25.80;99613.50;5097202;28;943;-27
2021/04/06 11:09:09;;;;;;;;;;;;;;;26.33;25.58;99609.19;5097408;28;826;-27
2021/04/06 11:11:34;;;;;;;;;;;;;;;26.20;25.58;99597.34;5097307;28;1124;-29
2021/04/06 11:14:07;;;;;;;;;;;;;;;26.10;25.94;99592.34;5117744;28;1902;-27
2021/04/06 11:16:32;;;;;;;;;;;;;;;26.26;25.66;99599.22;5116445;28;990;-29
2021/04/06 11:19:00;;;;;;;;;;;;;;;26.16;25.77;99580.75;5097120;28;875;-27
2021/04/06 11:21:26;;;;;;;;;;;;;;;26.05;25.78;99575.97;5097371;28;776;-30
2021/04/06 11:23:51;;;;;;;;;;;;;;;26.35;25.38;99581.00;5096969;28;791;-29
2021/04/06 11:26:17;;;;;;;;;;;;;;;26.17;25.68;99573.50;5096909;28;793;-27
2021/04/06 11:28:42;;;;;;;;;;;;;;;26.00;25.60;99571.19;5096982;28;864;-38
2021/04/06 11:31:07;;;;;;;;;;;;;;;26.02;25.98;99560.19;5096849;28;811;-29
2021/04/06 11:33:33;;;;;;;;;;;;;;;25.83;26.36;99551.03;5114498;28;1959;-31
2021/04/06 11:35:58;;;;;;;;;;;;;;;25.59;25.93;99555.91;5098915;28;872;-40
2021/04/06 11:38:23;;;;;;;;;;;;;;;25.41;26.08;99546.50;5117094;28;913;-39
2021/04/06 11:40:48;;;;;;;;;;;;;;;25.02;26.57;99546.13;5117413;28;834;-29
2021/04/06 11:43:14;;;;;;;;;;;;;;;24.40;27.08;99531.41;5117669;28;763;-39
2021/04/06 11:45:39;;;;;;;;;;;;;;;24.84;26.92;99531.28;5116094;28;1043;-40
2021/04/06 11:48:05;;;;;;;;;;;;;;;25.02;26.75;99525.44;5103162;28;970;-39
2021/04/06 11:50:33;;;;;;;;;;;;;;;25.31;27.13;99514.59;5078867;28;814;-33
2021/04/06 11:52:58;;;;;;;;;;;;;;;26.25;25.91;99499.69;5095596;28;1909;-33
2021/04/06 11:55:23;;;;;;;;;;;;;;;26.15;26.20;99489.31;5096832;28;764;-31
2021/04/06 11:57:49;;;;;;;;;;;;;;;26.33;26.29;99486.00;5096876;28;881;-33
2021/04/06 12:00:15;;;;;;;;;;;;;;;26.32;26.12;99465.47;5095889;28;804;-39
2021/04/06 12:02:40;;;;;;;;;;;;;;;25.62;26.21;99448.63;5105764;28;1002;-33
2021/04/06 12:05:06;;;;;;;;;;;;;;;26.19;26.20;99425.03;5115830;28;780;-35
2021/04/06 12:07:31;;;;;;;;;;;;;;;26.21;26.19;99433.75;5116393;28;808;-37
2021/04/06 12:09:58;;;;;;;;;;;;;;;26.25;26.67;99434.97;5117031;28;819;-37
2021/04/06 12:12:23;;;;;;;;;;;;;;;26.77;25.62;99420.78;5109519;28;1165;-37
2021/04/06 12:14:49;;;;;;;;;;;;;;;26.38;26.05;99399.94;5089563;28;1921;-34
2021/04/06 12:17:14;;;;;;;;;;;;;;;26.22;26.91;99359.94;5096292;28;767;-38
2021/04/06 12:19:40;;;;;;;;;;;;;;;26.61;26.00;99338.50;5096429;28;867;-35
2021/04/06 12:22:05;;;;;;;;;;;;;;;26.03;26.39;99330.94;5096015;28;815;-38
2021/04/06 12:24:30;;;;;;;;;;;;;;;26.01;26.68;99353.72;5096480;28;820;-37
2021/04/06 12:26:55;;;;;;;;;;;;;;;25.72;26.33;99377.41;5096100;28;1504;-33
2021/04/06 12:29:21;;;;;;;;;;;;;;;24.67;27.74;99389.06;5096307;28;780;-32
2021/04/06 12:31:46;;;;;;;;;;;;;;;24.51;27.62;99406.38;5095090;28;918;-29
2021/04/06 12:34:11;;;;;;;;;;;;;;;25.78;26.69;99425.88;5116156;28;1901;-36
2021/04/06 12:36:37;;;;;;;;;;;;;;;26.07;26.56;99431.06;5113430;28;866;-38
2021/04/06 12:39:03;;;;;;;;;;;;;;;26.16;26.51;99437.88;5098112;28;807;-41
2021/04/06 12:41:28;;;;;;;;;;;;;;;26.46;26.20;99452.81;5116177;28;830;-35
2021/04/06 12:43:53;;;;;;;;;;;;;;;26.60;25.98;99495.94;5116175;28;762;-36
2021/04/06 12:46:19;;;;;;;;;;;;;;;27.30;24.95;99499.06;5116337;28;1197;-36
2021/04/06 12:48:44;;;;;;;;;;;;;;;27.73;24.70;99509.25;5104869;28;962;-43
2021/04/06 12:51:09;;;;;;;;;;;;;;;28.10;24.12;99496.94;5116232;28;841;-39
2021/04/06 12:53:34;;;;;;;;;;;;;;;28.31;23.69;99503.03;5116164;28;1909;-41
2021/04/06 12:56:00;;;;;;;;;;;;;;;27.51;24.92;99497.91;5116300;28;866;-35
2021/04/06 12:58:25;;;;;;;;;;;;;;;27.18;25.46;99480.84;5116190;28;881;-29
2021/04/06 13:00:50;;;;;;;;;;;;;;;26.84;26.14;99450.44;5116287;28;783;-33
2021/04/06 13:03:16;;;;;;;;;;;;;;;26.72;26.23;99434.91;5100116;28;1001;-42
2021/04/06 13:05:41;;;;;;;;;;;;;;;26.82;26.27;99437.16;5096006;28;976;-39
2021/04/06 13:08:10;;;;;;;;;;;;;;;26.94;25.99;99428.41;5114648;28;852;-40